Time;durP1;ratioP1;P1;durP2;ratioP2;P2;SDS_P1;SDS_P2;PMS_P1;PMS_P2;Temp;Humidity;BMP_temperature;BMP_pressure;BME280_temperature;BME280_humidity;BME280_pressure;Samples;Min_cycle;Max_cycle;Signal;HPM_P1;HPM_P2
2022/11/20 00:00:19;;;;;;;1.70;1.40;;;14.60;61.30;;;;;;5087795;28;45219;-72
2022/11/20 00:02:46;;;;;;;1.98;1.45;;;14.60;61.30;;;;;;5087933;27;45378;-72
2022/11/20 00:05:14;;;;;;;1.90;1.20;;;14.50;61.30;;;;;;5087823;28;45325;-72
2022/11/20 00:07:41;;;;;;;2.40;1.08;;;14.60;61.40;;;;;;5088188;27;45188;-72
2022/11/20 00:10:08;;;;;;;1.45;1.25;;;14.50;61.40;;;;;;5087691;27;45402;-72
2022/11/20 00:12:36;;;;;;;1.52;1.42;;;14.50;61.40;;;;;;5087736;27;45365;-72
2022/11/20 00:15:03;;;;;;;1.80;1.30;;;14.50;61.40;;;;;;5087989;27;45322;-72
2022/11/20 00:17:30;;;;;;;1.88;1.40;;;14.50;61.30;;;;;;5087783;27;45343;-72
2022/11/20 00:19:57;;;;;;;1.92;1.33;;;14.50;61.30;;;;;;5087770;27;46657;-72
2022/11/20 00:22:25;;;;;;;2.08;1.40;;;14.50;61.40;;;;;;5087494;27;45140;-72
2022/11/20 00:24:52;;;;;;;1.30;1.20;;;14.50;61.40;;;;;;5087649;27;45235;-72
2022/11/20 00:27:19;;;;;;;1.20;1.13;;;14.50;61.40;;;;;;5087932;27;45516;-72
2022/11/20 00:29:46;;;;;;;1.30;1.17;;;14.50;61.40;;;;;;5087369;27;46400;-73
2022/11/20 00:32:13;;;;;;;3.47;1.50;;;14.50;61.40;;;;;;5086614;27;45255;-72
2022/11/20 00:34:40;;;;;;;1.10;1.00;;;14.50;61.30;;;;;;5087472;27;45199;-72
2022/11/20 00:37:06;;;;;;;1.52;1.13;;;14.50;61.30;;;;;;5087649;27;45492;-72
2022/11/20 00:39:35;;;;;;;1.13;1.00;;;14.50;61.30;;;;;;5087598;27;47019;-72
2022/11/20 00:42:01;;;;;;;1.35;1.25;;;14.50;61.20;;;;;;5087563;27;45171;-73
2022/11/20 00:44:29;;;;;;;1.70;1.25;;;14.50;61.20;;;;;;5087445;27;45264;-72
2022/11/20 00:46:55;;;;;;;1.55;1.35;;;14.50;61.30;;;;;;5087772;27;45401;-72
2022/11/20 00:49:22;;;;;;;2.08;1.20;;;14.50;61.40;;;;;;5087525;27;45484;-72
2022/11/20 00:51:49;;;;;;;1.50;1.15;;;14.40;61.20;;;;;;5087372;27;45306;-72
2022/11/20 00:54:16;;;;;;;1.02;0.93;;;14.40;61.20;;;;;;5086851;27;45267;-72
2022/11/20 00:56:44;;;;;;;1.95;1.42;;;14.40;61.30;;;;;;5087087;27;45245;-72
2022/11/20 00:59:11;;;;;;;1.85;1.10;;;14.40;61.30;;;;;;5086774;27;45374;-72
2022/11/20 01:01:38;;;;;;;1.85;1.25;;;14.40;61.30;;;;;;5086875;27;45411;-72
2022/11/20 01:04:05;;;;;;;1.92;1.30;;;14.40;61.30;;;;;;5086732;27;45259;-73
2022/11/20 01:06:33;;;;;;;1.20;1.10;;;14.40;61.20;;;;;;5087154;27;45291;-72
2022/11/20 01:09:00;;;;;;;2.83;1.30;;;14.40;61.20;;;;;;5086789;27;46353;-72
2022/11/20 01:11:28;;;;;;;1.95;1.50;;;14.40;61.20;;;;;;5086786;27;45278;-72
2022/11/20 01:13:56;;;;;;;2.28;1.30;;;14.40;61.30;;;;;;5086536;27;45341;-72
2022/11/20 01:16:24;;;;;;;1.15;1.10;;;14.40;61.30;;;;;;5086181;27;45426;-72
2022/11/20 01:18:53;;;;;;;1.50;0.95;;;14.40;61.30;;;;;;5086439;27;45287;-72
2022/11/20 01:21:21;;;;;;;1.52;1.30;;;14.40;61.30;;;;;;5086686;27;45428;-72
2022/11/20 01:23:48;;;;;;;1.30;1.15;;;14.30;62.00;;;;;;5086762;27;45200;-73
2022/11/20 01:26:16;;;;;;;1.25;0.98;;;14.40;61.30;;;;;;5086759;27;45528;-72
2022/11/20 01:28:43;;;;;;;3.55;1.23;;;14.30;61.40;;;;;;5086389;27;46356;-72
2022/11/20 01:31:15;;;;;;;1.20;1.20;;;14.30;61.40;;;;;;5086476;28;45280;-72
2022/11/20 01:33:42;;;;;;;0.90;0.90;;;14.30;62.00;;;;;;5086605;27;45321;-72
2022/11/20 01:36:09;;;;;;;1.48;1.38;;;14.30;61.30;;;;;;5086631;27;45401;-72
2022/11/20 01:38:36;;;;;;;1.77;1.00;;;14.30;61.30;;;;;;5086029;27;46353;-72
2022/11/20 01:41:03;;;;;;;1.00;1.00;;;14.30;61.30;;;;;;5086318;27;45135;-73
2022/11/20 01:43:29;;;;;;;0.95;0.95;;;14.30;62.10;;;;;;5086742;27;45182;-72
2022/11/20 01:46:08;;;;;;;1.20;1.10;;;14.30;61.30;;;;;;5088935;27;45257;-72
2022/11/20 01:48:39;;;;;;;1.80;0.93;;;14.30;61.30;;;;;;5089861;27;47323;-72
2022/11/20 01:51:07;;;;;;;1.27;1.17;;;14.30;61.40;;;;;;5089776;27;45269;-72
2022/11/20 01:53:35;;;;;;;1.27;1.00;;;14.30;61.40;;;;;;5089869;27;45321;-73
2022/11/20 01:56:03;;;;;;;2.85;1.10;;;14.30;61.40;;;;;;5089744;27;45391;-72
2022/11/20 01:58:32;;;;;;;1.45;1.25;;;14.30;61.40;;;;;;5089505;27;46401;-72
2022/11/20 02:00:59;;;;;;;1.65;1.10;;;14.30;61.40;;;;;;5089708;27;45472;-72
2022/11/20 02:03:26;;;;;;;0.90;0.90;;;14.30;61.40;;;;;;5089660;27;45191;-72
2022/11/20 02:05:56;;;;;;;1.38;1.05;;;14.30;61.40;;;;;;5089185;27;45387;-72
2022/11/20 02:08:23;;;;;;;1.42;1.25;;;14.30;61.40;;;;;;5088532;27;46359;-73
2022/11/20 02:10:50;;;;;;;1.10;1.00;;;14.20;61.30;;;;;;5089408;27;45286;-72
2022/11/20 02:16:01;;;;;;;1.23;1.13;;;14.20;61.30;;;;;;5087091;28;45216;-72
2022/11/20 02:18:28;;;;;;;1.45;1.17;;;14.20;61.30;;;;;;5089192;27;46328;-72
2022/11/20 02:21:00;;;;;;;1.60;1.00;;;14.20;61.20;;;;;;5089404;27;45142;-72
2022/11/20 02:23:29;;;;;;;1.10;1.00;;;14.30;61.30;;;;;;5089384;27;45211;-73
2022/11/20 02:25:57;;;;;;;0.80;0.80;;;14.20;61.20;;;;;;5089473;27;45310;-72
2022/11/20 02:28:24;;;;;;;1.05;0.90;;;14.20;61.20;;;;;;5089009;27;46280;-72
2022/11/20 02:30:51;;;;;;;1.95;1.25;;;14.20;61.20;;;;;;5087424;27;45224;-72
2022/11/20 02:33:18;;;;;;;0.77;0.77;;;14.20;61.20;;;;;;5089389;27;45229;-72
2022/11/20 02:35:45;;;;;;;1.65;1.08;;;14.30;61.20;;;;;;5088371;27;45450;-72
2022/11/20 02:38:12;;;;;;;1.38;1.10;;;14.20;61.20;;;;;;5088601;27;45328;-72
2022/11/20 02:40:39;;;;;;;1.05;1.02;;;14.20;61.10;;;;;;5087940;27;45498;-72
2022/11/20 02:43:08;;;;;;;3.22;1.17;;;14.20;61.10;;;;;;5088999;27;45335;-72
2022/11/20 02:45:35;;;;;;;2.00;1.30;;;14.20;61.00;;;;;;5088284;27;45227;-72
2022/11/20 02:48:02;;;;;;;1.92;1.08;;;14.20;61.00;;;;;;5088657;27;46551;-72
2022/11/20 02:50:29;;;;;;;3.17;1.20;;;14.30;61.10;;;;;;5088827;27;45306;-72
2022/11/20 02:52:56;;;;;;;4.00;1.27;;;14.30;61.10;;;;;;5087461;28;45441;-72
2022/11/20 02:55:23;;;;;;;2.97;1.55;;;14.30;61.10;;;;;;5088184;27;45135;-71
2022/11/20 02:57:49;;;;;;;2.22;1.08;;;14.30;61.10;;;;;;5087707;27;45344;-72
2022/11/20 03:00:18;;;;;;;1.77;1.20;;;14.20;61.00;;;;;;5088679;27;45323;-72
2022/11/20 03:02:45;;;;;;;3.45;1.50;;;14.30;61.00;;;;;;5088732;27;45208;-72
2022/11/20 03:05:12;;;;;;;2.42;1.35;;;14.20;61.00;;;;;;5088753;27;45176;-72
2022/11/20 03:07:39;;;;;;;1.88;1.30;;;14.20;61.00;;;;;;5088539;27;45272;-72
2022/11/20 03:10:07;;;;;;;1.60;1.40;;;14.20;61.00;;;;;;5088488;27;45216;-72
2022/11/20 03:12:33;;;;;;;1.98;1.25;;;14.20;60.90;;;;;;5088706;27;45406;-72
2022/11/20 03:15:00;;;;;;;2.45;1.27;;;14.20;60.90;;;;;;5088827;27;45315;-72
2022/11/20 03:17:29;;;;;;;1.52;1.20;;;14.20;61.00;;;;;;5088355;27;46341;-71
2022/11/20 03:19:56;;;;;;;3.28;1.33;;;14.20;60.90;;;;;;5088433;27;45211;-72
2022/11/20 03:22:23;;;;;;;1.75;1.40;;;14.20;60.90;;;;;;5088516;27;45404;-72
2022/11/20 03:24:50;;;;;;;2.25;1.23;;;14.20;60.90;;;;;;5087593;27;45588;-72
2022/11/20 03:27:16;;;;;;;2.03;1.33;;;14.20;60.90;;;;;;5087994;27;46576;-72
2022/11/20 03:29:44;;;;;;;2.55;1.20;;;14.20;60.90;;;;;;5088023;27;45196;-72
2022/11/20 03:32:10;;;;;;;1.98;1.40;;;14.20;60.90;;;;;;5088322;27;45262;-72
2022/11/20 03:34:39;;;;;;;2.42;1.38;;;14.20;60.90;;;;;;5088455;27;45299;-72
2022/11/20 03:37:05;;;;;;;2.70;1.27;;;14.20;60.90;;;;;;5087921;27;45284;-72
2022/11/20 03:39:32;;;;;;;1.48;1.20;;;14.20;60.90;;;;;;5088055;27;45204;-72
2022/11/20 03:41:59;;;;;;;1.63;1.35;;;14.20;60.90;;;;;;5087496;27;45211;-72
2022/11/20 03:44:26;;;;;;;2.05;1.20;;;14.20;60.90;;;;;;5088409;27;45315;-72
2022/11/20 03:46:53;;;;;;;2.40;1.20;;;14.20;60.90;;;;;;5087841;27;47051;-73
2022/11/20 03:49:20;;;;;;;1.17;1.08;;;14.20;60.90;;;;;;5087986;27;45395;-72
2022/11/20 03:51:48;;;;;;;2.88;1.30;;;14.20;61.00;;;;;;5087987;27;45192;-72
2022/11/20 03:54:15;;;;;;;1.90;1.42;;;14.20;61.00;;;;;;5087859;27;45180;-72
2022/11/20 03:56:42;;;;;;;2.75;1.40;;;14.20;61.00;;;;;;5087634;27;45342;-72
2022/11/20 03:59:11;;;;;;;2.15;1.30;;;14.20;61.00;;;;;;5087504;27;45319;-72
2022/11/20 04:01:38;;;;;;;1.50;1.27;;;14.10;60.90;;;;;;5087968;27;45220;-72
2022/11/20 04:04:05;;;;;;;2.72;1.50;;;14.10;60.90;;;;;;5088141;27;45197;-72
2022/11/20 04:06:34;;;;;;;1.10;1.00;;;14.10;60.80;;;;;;5087529;27;46651;-72
2022/11/20 04:09:03;;;;;;;1.50;0.95;;;14.10;60.80;;;;;;5086720;27;45239;-72
2022/11/20 04:11:30;;;;;;;1.23;1.10;;;14.20;60.90;;;;;;5087778;27;45272;-72
2022/11/20 04:13:58;;;;;;;1.67;1.10;;;14.10;60.80;;;;;;5087928;27;44735;-72
2022/11/20 04:16:26;;;;;;;2.33;1.45;;;14.10;60.80;;;;;;5087339;27;46413;-72
2022/11/20 04:18:53;;;;;;;2.38;1.40;;;14.10;60.80;;;;;;5087496;27;45180;-72
2022/11/20 04:21:20;;;;;;;1.40;1.27;;;14.20;60.90;;;;;;5087521;27;45175;-72
2022/11/20 04:23:47;;;;;;;1.30;1.20;;;14.10;60.80;;;;;;5087718;27;45351;-72
2022/11/20 04:26:15;;;;;;;1.33;1.20;;;14.10;60.80;;;;;;5086544;27;45670;-72
2022/11/20 04:28:42;;;;;;;0.90;0.90;;;14.10;60.90;;;;;;5086789;27;45207;-72
2022/11/20 04:31:10;;;;;;;1.60;1.30;;;14.20;60.90;;;;;;5087397;27;45206;-72
2022/11/20 04:33:37;;;;;;;1.10;1.00;;;14.10;60.80;;;;;;5087662;27;45301;-72
2022/11/20 04:36:04;;;;;;;1.67;1.15;;;14.10;60.80;;;;;;5087146;27;46388;-72
2022/11/20 04:38:31;;;;;;;1.10;1.00;;;14.10;60.80;;;;;;5086907;27;45335;-72
2022/11/20 04:40:59;;;;;;;2.15;1.10;;;14.10;60.80;;;;;;5087180;27;45150;-72
2022/11/20 04:43:27;;;;;;;2.30;1.30;;;14.10;60.80;;;;;;5087523;27;45551;-72
2022/11/20 04:45:54;;;;;;;2.90;1.30;;;14.10;60.80;;;;;;5087008;27;47321;-72
2022/11/20 04:48:21;;;;;;;2.78;1.38;;;14.10;60.90;;;;;;5087069;27;45453;-72
2022/11/20 04:50:48;;;;;;;1.75;1.10;;;14.10;60.80;;;;;;5087200;27;45270;-72
2022/11/20 04:53:15;;;;;;;2.45;1.20;;;14.10;60.80;;;;;;5087219;27;45435;-72
2022/11/20 04:55:41;;;;;;;1.30;1.20;;;14.10;61.20;;;;;;5086513;27;48601;-72
2022/11/20 04:58:08;;;;;;;1.27;1.13;;;14.10;60.80;;;;;;5086767;27;45254;-72
2022/11/20 05:00:37;;;;;;;1.00;1.00;;;14.10;60.80;;;;;;5087094;27;45291;-72
2022/11/20 05:03:04;;;;;;;1.48;0.85;;;14.10;60.80;;;;;;5087166;27;45364;-72
2022/11/20 05:05:31;;;;;;;1.35;0.95;;;14.10;60.80;;;;;;5086640;27;46403;-72
2022/11/20 05:07:58;;;;;;;1.42;0.98;;;14.10;60.80;;;;;;5086730;27;45713;-72
2022/11/20 05:10:25;;;;;;;2.10;1.20;;;14.10;60.80;;;;;;5086190;27;45263;-72
2022/11/20 05:12:52;;;;;;;1.08;0.98;;;14.10;60.80;;;;;;5086904;27;45219;-72
2022/11/20 05:15:18;;;;;;;1.45;1.10;;;14.10;60.90;;;;;;5086591;27;46558;-72
2022/11/20 05:17:49;;;;;;;1.13;0.98;;;14.00;60.80;;;;;;5086632;27;45162;-72
2022/11/20 05:20:16;;;;;;;1.38;1.13;;;14.00;60.80;;;;;;5089452;27;45279;-72
2022/11/20 05:22:43;;;;;;;1.10;1.00;;;14.10;60.80;;;;;;5090420;27;45391;-72
2022/11/20 05:25:10;;;;;;;2.10;0.98;;;14.00;60.80;;;;;;5089951;27;46432;-72
2022/11/20 05:27:37;;;;;;;1.08;0.80;;;14.00;60.80;;;;;;5090094;27;45308;-72
2022/11/20 05:30:05;;;;;;;2.53;1.13;;;14.00;60.80;;;;;;5089993;27;45338;-72
2022/11/20 05:32:32;;;;;;;1.10;0.98;;;14.00;60.80;;;;;;5090436;28;45513;-73
2022/11/20 05:35:00;;;;;;;1.60;0.98;;;14.00;60.80;;;;;;5089776;27;46751;-73
2022/11/20 05:37:27;;;;;;;1.35;1.25;;;14.00;60.80;;;;;;5090002;27;45273;-72
2022/11/20 05:39:54;;;;;;;2.33;0.90;;;14.00;60.80;;;;;;5090004;27;45275;-72
2022/11/20 05:42:33;;;;;;;1.55;0.90;;;14.00;60.90;;;;;;5090101;27;45335;-72
2022/11/20 05:45:00;;;;;;;1.33;0.98;;;14.00;60.90;;;;;;5089777;27;46738;-72
2022/11/20 05:47:27;;;;;;;1.67;0.85;;;14.00;60.80;;;;;;5089800;27;45199;-72
2022/11/20 05:49:54;;;;;;;1.10;0.90;;;14.00;60.80;;;;;;5089990;27;45324;-72
2022/11/20 05:52:22;;;;;;;1.00;0.85;;;14.00;60.80;;;;;;5090000;27;45398;-72
2022/11/20 05:54:49;;;;;;;1.23;1.00;;;14.00;60.90;;;;;;5089297;27;46426;-72
2022/11/20 05:57:16;;;;;;;1.52;1.08;;;14.00;60.90;;;;;;5089437;27;45227;-72
2022/11/20 05:59:43;;;;;;;0.77;0.77;;;14.00;60.90;;;;;;5089207;27;45294;-72
2022/11/20 06:02:10;;;;;;;0.90;0.90;;;14.00;60.90;;;;;;5089850;27;45353;-72
2022/11/20 06:04:37;;;;;;;1.10;1.00;;;14.00;60.90;;;;;;5089479;27;45357;-72
2022/11/20 06:07:05;;;;;;;0.90;0.90;;;13.90;60.80;;;;;;5089316;27;45217;-73
2022/11/20 06:09:33;;;;;;;0.73;0.70;;;14.00;60.80;;;;;;5089818;27;45226;-72
2022/11/20 06:12:00;;;;;;;1.17;1.08;;;13.90;60.80;;;;;;5089798;27;45250;-73
2022/11/20 06:14:27;;;;;;;0.93;0.93;;;13.90;60.80;;;;;;5089340;27;45322;-72
2022/11/20 06:16:55;;;;;;;0.88;0.88;;;13.90;60.80;;;;;;5089544;27;45283;-73
2022/11/20 06:19:22;;;;;;;2.03;0.80;;;13.90;60.80;;;;;;5089341;27;45166;-72
2022/11/20 06:21:49;;;;;;;0.82;0.80;;;13.90;60.80;;;;;;5089726;27;45252;-72
2022/11/20 06:24:16;;;;;;;1.08;0.80;;;14.00;60.90;;;;;;5089103;27;45252;-72
2022/11/20 06:26:44;;;;;;;1.33;0.93;;;13.90;60.80;;;;;;5089243;27;45248;-73
2022/11/20 06:29:11;;;;;;;0.85;0.85;;;13.90;60.90;;;;;;5089229;27;45200;-72
2022/11/20 06:31:38;;;;;;;1.52;0.82;;;13.90;60.90;;;;;;5088665;27;45294;-73
2022/11/20 06:34:05;;;;;;;1.02;0.75;;;13.90;60.80;;;;;;5088969;27;46718;-72
2022/11/20 06:36:32;;;;;;;1.15;0.80;;;13.90;60.80;;;;;;5089173;27;45317;-72
2022/11/20 06:39:00;;;;;;;1.10;0.73;;;13.90;60.90;;;;;;5089073;27;45211;-72
2022/11/20 06:41:27;;;;;;;1.60;0.80;;;13.90;60.80;;;;;;5089084;27;45461;-72
2022/11/20 06:43:56;;;;;;;0.90;0.90;;;13.90;60.80;;;;;;5088371;27;47001;-73
2022/11/20 06:46:23;;;;;;;0.80;0.80;;;13.90;60.80;;;;;;5088962;27;45263;-73
2022/11/20 06:48:50;;;;;;;1.13;0.95;;;13.90;60.90;;;;;;5089082;27;45172;-73
2022/11/20 06:51:17;;;;;;;0.70;0.70;;;13.90;60.90;;;;;;5089220;27;45205;-73
2022/11/20 06:53:44;;;;;;;0.80;0.80;;;13.90;60.90;;;;;;5088770;27;45303;-72
2022/11/20 06:56:10;;;;;;;1.42;0.80;;;13.90;61.60;;;;;;5088810;27;45311;-73
2022/11/20 06:58:37;;;;;;;0.80;0.80;;;13.90;60.90;;;;;;5089052;27;45306;-73
2022/11/20 07:01:07;;;;;;;0.63;0.63;;;13.90;60.90;;;;;;5089303;27;45426;-73
2022/11/20 07:03:33;;;;;;;0.80;0.80;;;13.90;61.60;;;;;;5088788;27;45410;-73
2022/11/20 07:06:01;;;;;;;0.80;0.73;;;13.90;60.90;;;;;;5088756;27;45545;-73
2022/11/20 07:08:28;;;;;;;1.45;0.80;;;13.90;60.80;;;;;;5088970;27;45238;-72
2022/11/20 07:10:58;;;;;;;0.77;0.70;;;13.90;60.90;;;;;;5089259;28;45538;-72
2022/11/20 07:13:25;;;;;;;0.98;0.98;;;13.90;61.60;;;;;;5088692;27;45319;-73
2022/11/20 07:15:52;;;;;;;1.67;0.60;;;13.90;60.90;;;;;;5088573;27;45415;-73
2022/11/20 07:18:20;;;;;;;0.70;0.70;;;13.90;60.90;;;;;;5088680;27;45181;-73
2022/11/20 07:20:47;;;;;;;1.67;0.90;;;13.90;60.90;;;;;;5088842;27;45565;-72
2022/11/20 07:23:14;;;;;;;1.65;0.90;;;13.90;60.90;;;;;;5088378;27;45350;-73
2022/11/20 07:25:40;;;;;;;0.77;0.70;;;13.80;60.80;;;;;;5088401;27;45353;-71
2022/11/20 07:28:08;;;;;;;0.80;0.80;;;13.80;60.80;;;;;;5087930;27;45318;-73
2022/11/20 07:30:34;;;;;;;1.00;0.70;;;13.80;60.80;;;;;;5088607;27;45114;-73
2022/11/20 07:33:01;;;;;;;1.08;0.82;;;13.90;60.90;;;;;;5088243;27;46390;-73
2022/11/20 07:35:30;;;;;;;1.27;0.90;;;13.90;60.90;;;;;;5088284;27;45323;-73
2022/11/20 07:37:57;;;;;;;1.17;0.70;;;13.80;60.80;;;;;;5088369;27;45253;-72
2022/11/20 07:40:24;;;;;;;0.70;0.70;;;13.80;60.80;;;;;;5088046;28;45308;-72
2022/11/20 07:42:51;;;;;;;0.90;0.60;;;13.80;60.80;;;;;;5086922;27;45481;-73
2022/11/20 07:45:17;;;;;;;0.90;0.80;;;13.80;60.80;;;;;;5088264;27;45488;-73
2022/11/20 07:47:44;;;;;;;1.35;0.73;;;13.80;60.80;;;;;;5088271;27;45310;-73
2022/11/20 07:50:11;;;;;;;0.75;0.70;;;13.80;60.80;;;;;;5088441;27;45284;-73
2022/11/20 07:52:40;;;;;;;0.80;0.80;;;13.80;60.80;;;;;;5087648;27;45255;-73
2022/11/20 07:55:08;;;;;;;0.65;0.65;;;13.80;60.80;;;;;;5088093;27;45240;-73
2022/11/20 07:57:35;;;;;;;0.80;0.80;;;13.80;60.80;;;;;;5088329;27;45353;-73
2022/11/20 08:00:02;;;;;;;0.82;0.70;;;13.80;60.80;;;;;;5088408;27;45430;-73
2022/11/20 08:02:29;;;;;;;0.80;0.80;;;13.80;60.80;;;;;;5087924;27;46380;-73
2022/11/20 08:04:56;;;;;;;0.80;0.80;;;13.80;60.80;;;;;;5087908;27;45219;-73
2022/11/20 08:07:23;;;;;;;1.00;0.93;;;13.80;60.80;;;;;;5087970;27;45397;-73
2022/11/20 08:09:51;;;;;;;0.75;0.75;;;13.80;60.80;;;;;;5088115;27;45409;-73
2022/11/20 08:15:03;;;;;;;0.70;0.70;;;13.80;60.80;;;;;;5076076;27;45327;-72
2022/11/20 08:17:29;;;;;;;0.70;0.70;;;13.80;60.80;;;;;;5087114;27;45188;-73
2022/11/20 08:19:56;;;;;;;0.80;0.80;;;13.80;60.80;;;;;;5087719;27;45199;-73
2022/11/20 08:22:23;;;;;;;0.80;0.77;;;13.80;60.80;;;;;;5087436;27;45362;-73
2022/11/20 08:24:51;;;;;;;0.70;0.70;;;13.80;60.80;;;;;;5087465;28;45298;-73
2022/11/20 08:27:18;;;;;;;0.70;0.63;;;13.80;60.80;;;;;;5087781;27;45212;-73
2022/11/20 08:29:45;;;;;;;0.88;0.75;;;13.80;60.80;;;;;;5087591;27;45391;-73
2022/11/20 08:32:12;;;;;;;0.85;0.68;;;13.80;60.80;;;;;;5087391;27;47334;-73
2022/11/20 08:34:39;;;;;;;0.77;0.77;;;13.80;60.80;;;;;;5087361;27;45237;-73
2022/11/20 08:37:06;;;;;;;0.93;0.70;;;13.80;60.80;;;;;;5087340;27;45484;-73
2022/11/20 08:39:33;;;;;;;0.70;0.70;;;13.80;60.80;;;;;;5087572;27;45478;-73
2022/11/20 08:42:01;;;;;;;1.30;0.80;;;13.80;60.80;;;;;;5087261;27;45272;-73
2022/11/20 08:44:28;;;;;;;0.70;0.70;;;13.80;60.80;;;;;;5087595;27;45586;-73
2022/11/20 08:46:55;;;;;;;0.50;0.50;;;13.80;60.80;;;;;;5087460;27;45465;-73
2022/11/20 08:49:22;;;;;;;0.55;0.50;;;13.80;60.70;;;;;;5087474;27;45412;-74
2022/11/20 08:51:52;;;;;;;0.70;0.70;;;13.80;60.70;;;;;;5086964;27;46381;-73
2022/11/20 08:54:19;;;;;;;0.68;0.68;;;13.80;60.70;;;;;;5086631;27;45332;-72
2022/11/20 08:56:46;;;;;;;0.90;0.60;;;13.80;60.70;;;;;;5081865;27;45406;-72
2022/11/20 08:59:14;;;;;;;0.90;0.52;;;13.80;60.70;;;;;;5075947;28;45337;-73
2022/11/20 09:01:41;;;;;;;0.70;0.70;;;13.80;60.70;;;;;;5077294;28;45284;-73
2022/11/20 09:04:08;;;;;;;0.60;0.60;;;13.80;60.70;;;;;;5070265;27;45602;-73
2022/11/20 09:06:35;;;;;;;0.75;0.63;;;13.80;60.70;;;;;;5072259;28;45600;-72
2022/11/20 09:09:02;;;;;;;1.13;0.63;;;13.80;60.70;;;;;;5085132;27;45296;-74
2022/11/20 09:11:28;;;;;;;0.70;0.70;;;13.80;60.70;;;;;;5076207;27;45475;-73
2022/11/20 09:13:55;;;;;;;0.70;0.70;;;13.80;60.70;;;;;;5083558;27;45428;-73
2022/11/20 09:16:24;;;;;;;0.65;0.65;;;13.80;60.70;;;;;;5076469;27;45518;-74
2022/11/20 09:18:51;;;;;;;0.70;0.70;;;13.80;60.80;;;;;;5081132;27;45417;-73
2022/11/20 09:21:17;;;;;;;0.68;0.68;;;13.80;60.70;;;;;;5085043;27;46472;-73
2022/11/20 09:23:45;;;;;;;0.70;0.70;;;13.80;60.70;;;;;;5081783;27;45281;-72
2022/11/20 09:26:12;;;;;;;4.25;0.80;;;13.80;61.20;;;;;;5063803;28;45402;-72
2022/11/20 09:28:39;;;;;;;0.70;0.60;;;13.80;61.00;;;;;;5060930;27;45446;-72
2022/11/20 09:31:06;;;;;;;0.50;0.50;;;13.80;60.80;;;;;;5077473;28;46291;-72
2022/11/20 09:33:35;;;;;;;0.68;0.68;;;13.80;60.70;;;;;;5087607;27;45273;-81
2022/11/20 09:36:02;;;;;;;1.27;1.10;;;13.80;60.60;;;;;;5092494;27;45150;-80
2022/11/20 09:38:29;;;;;;;0.70;0.60;;;13.90;60.60;;;;;;5070610;28;45516;-81
2022/11/20 09:40:58;;;;;;;1.05;0.70;;;13.90;60.60;;;;;;5067663;27;47053;-81
2022/11/20 09:43:29;;;;;;;1.55;0.80;;;13.90;60.60;;;;;;5093038;28;45336;-83
2022/11/20 09:46:05;;;;;;;0.50;0.50;;;13.90;60.50;;;;;;5097905;27;45303;-82
2022/11/20 09:48:49;;;;;;;0.68;0.68;;;13.90;60.50;;;;;;5097923;28;45312;-82
2022/11/20 09:51:24;;;;;;;0.85;0.68;;;13.90;60.50;;;;;;5090398;28;45502;-82
2022/11/20 09:53:58;;;;;;;0.60;0.60;;;13.90;60.40;;;;;;5082103;27;45512;-79
2022/11/20 09:56:24;;;;;;;0.60;0.60;;;13.90;60.50;;;;;;5087500;27;45618;-79
2022/11/20 09:58:52;;;;;;;0.85;0.70;;;13.90;60.40;;;;;;5088474;28;45472;-80
2022/11/20 10:01:20;;;;;;;0.60;0.60;;;14.00;60.40;;;;;;5087834;28;45532;-80
2022/11/20 10:03:53;;;;;;;0.60;0.60;;;14.00;60.40;;;;;;5095243;27;45413;-74
2022/11/20 10:06:21;;;;;;;0.80;0.65;;;14.00;60.40;;;;;;5091909;27;45411;-77
2022/11/20 10:08:52;;;;;;;0.82;0.82;;;14.00;60.30;;;;;;5086356;28;45537;-76
2022/11/20 10:11:23;;;;;;;0.82;0.60;;;14.00;60.20;;;;;;5093481;27;46889;-79
2022/11/20 10:13:53;;;;;;;0.65;0.50;;;14.10;60.20;;;;;;5092110;27;45294;-78
2022/11/20 10:16:23;;;;;;;0.88;0.60;;;14.10;60.20;;;;;;5090923;27;45296;-77
2022/11/20 10:19:02;;;;;;;0.93;0.73;;;14.10;60.20;;;;;;5082863;27;45451;-77
2022/11/20 10:21:33;;;;;;;1.88;0.95;;;14.10;60.40;;;;;;5079982;28;47390;-81
2022/11/20 10:24:34;;;;;;;0.60;0.60;;;14.10;60.60;;;;;;5087177;27;45411;-74
2022/11/20 10:27:04;;;;;;;0.73;0.70;;;14.10;60.60;;;;;;5067026;27;45440;-77
2022/11/20 10:29:34;;;;;;;0.60;0.60;;;14.10;60.50;;;;;;5080535;28;45505;-73
2022/11/20 10:32:02;;;;;;;0.93;0.70;;;14.10;60.40;;;;;;5081923;27;46290;-71
2022/11/20 10:34:34;;;;;;;0.60;0.60;;;14.10;60.30;;;;;;5078018;27;45371;-73
2022/11/20 10:37:03;;;;;;;0.70;0.70;;;14.10;60.20;;;;;;5071707;27;45331;-72
2022/11/20 10:39:33;;;;;;;0.60;0.60;;;14.10;60.30;;;;;;5078715;27;45426;-72
2022/11/20 10:42:00;;;;;;;0.60;0.60;;;14.10;60.30;;;;;;5076555;27;46415;-72
2022/11/20 10:47:14;;;;;;;5.65;1.30;;;14.20;60.30;;;;;;5081277;28;45434;-75
2022/11/20 10:49:43;;;;;;;4.78;0.70;;;14.20;62.10;;;;;;5084680;27;45387;-74
2022/11/20 10:52:12;;;;;;;1.90;0.68;;;14.20;60.60;;;;;;5082844;27;47553;-76
2022/11/20 10:54:45;;;;;;;0.65;0.65;;;14.20;60.40;;;;;;5077761;27;45505;-74
2022/11/20 10:57:25;;;;;;;2.33;0.90;;;14.30;61.10;;;;;;5070406;27;45628;-74
2022/11/20 11:00:03;;;;;;;1.83;0.90;;;14.30;60.90;;;;;;5086385;28;45602;-74
2022/11/20 11:02:35;;;;;;;0.90;0.68;;;14.30;61.50;;;;;;5077963;28;46463;-72
2022/11/20 11:05:09;;;;;;;1.27;0.77;;;14.30;60.50;;;;;;5083986;27;46653;-74
2022/11/20 11:07:37;;;;;;;1.33;0.90;;;14.30;60.50;;;;;;5084932;27;45497;-73
2022/11/20 11:10:19;;;;;;;0.80;0.80;;;14.30;60.30;;;;;;5075884;27;45521;-73
2022/11/20 11:12:47;;;;;;;1.33;0.70;;;14.30;60.30;;;;;;5077510;27;46755;-72
2022/11/20 11:15:15;;;;;;;2.55;1.02;;;14.30;60.30;;;;;;5086924;27;45306;-73
2022/11/20 11:17:47;;;;;;;0.80;0.60;;;14.40;60.60;;;;;;5083667;27;45314;-73
2022/11/20 11:20:18;;;;;;;2.50;0.75;;;14.40;60.50;;;;;;5084296;27;45589;-73
2022/11/20 11:22:46;;;;;;;1.80;0.90;;;14.40;60.50;;;;;;5075334;27;47622;-73
2022/11/20 11:25:27;;;;;;;0.60;0.60;;;14.60;60.20;;;;;;5067428;28;45569;-71
2022/11/20 11:27:56;;;;;;;1.38;0.80;;;14.80;59.90;;;;;;5069205;28;45438;-69
2022/11/20 11:30:23;;;;;;;0.70;0.70;;;14.90;59.70;;;;;;5084519;28;45469;-69
2022/11/20 11:32:50;;;;;;;1.70;1.30;;;15.00;59.30;;;;;;5084247;27;45611;-70
2022/11/20 11:35:23;;;;;;;0.60;0.60;;;15.10;59.10;;;;;;5085084;27;45545;-70
2022/11/20 11:37:50;;;;;;;0.70;0.70;;;15.20;58.70;;;;;;5085406;27;45334;-70
2022/11/20 11:40:18;;;;;;;0.75;0.75;;;15.30;58.50;;;;;;5084920;27;45330;-69
2022/11/20 11:42:47;;;;;;;1.30;0.80;;;15.40;58.20;;;;;;5085187;27;45401;-69
2022/11/20 11:45:14;;;;;;;1.33;0.68;;;15.50;58.10;;;;;;5068472;27;45481;-69
2022/11/20 11:47:45;;;;;;;0.70;0.70;;;15.50;58.00;;;;;;5067614;27;45257;-70
2022/11/20 11:50:18;;;;;;;0.68;0.68;;;15.60;58.10;;;;;;5106098;27;45414;-69
2022/11/20 11:52:48;;;;;;;1.50;0.80;;;15.70;57.90;;;;;;5099280;27;45449;-69
2022/11/20 11:55:16;;;;;;;0.85;0.73;;;15.70;57.80;;;;;;5096324;27;45790;-68
2022/11/20 11:57:46;;;;;;;4.30;0.80;;;15.70;57.80;;;;;;5102999;27;45415;-71
2022/11/20 12:00:14;;;;;;;2.95;0.80;;;15.80;57.70;;;;;;5106305;27;45405;-70
2022/11/20 12:02:48;;;;;;;0.70;0.60;;;15.80;57.60;;;;;;5104792;27;46357;-70
2022/11/20 12:05:19;;;;;;;2.20;0.88;;;15.90;58.30;;;;;;5088640;27;45476;-70
2022/11/20 12:07:49;;;;;;;5.07;1.00;;;15.90;57.70;;;;;;5090870;27;45599;-71
2022/11/20 12:10:20;;;;;;;1.17;0.80;;;16.00;57.80;;;;;;5083994;27;45210;-71
2022/11/20 12:12:51;;;;;;;2.78;1.17;;;16.00;57.40;;;;;;5086075;27;46521;-71
2022/11/20 12:15:24;;;;;;;3.08;1.00;;;16.10;57.10;;;;;;5085375;27;45327;-71
2022/11/20 12:17:51;;;;;;;1.20;0.70;;;16.10;56.90;;;;;;5100524;27;45520;-71
2022/11/20 12:20:18;;;;;;;1.60;0.80;;;16.10;57.10;;;;;;5085908;27;45460;-71
2022/11/20 12:22:50;;;;;;;1.30;0.75;;;16.00;57.20;;;;;;5085429;27;46394;-70
2022/11/20 12:25:18;;;;;;;0.85;0.80;;;16.10;57.10;;;;;;5084053;27;45344;-70
2022/11/20 12:28:03;;;;;;;0.80;0.80;;;16.10;57.00;;;;;;5084210;27;45521;-70
2022/11/20 12:30:30;;;;;;;1.90;1.00;;;16.10;57.10;;;;;;5083172;27;45398;-70
2022/11/20 12:33:13;;;;;;;0.82;0.80;;;16.10;57.40;;;;;;5083962;27;45422;-70
2022/11/20 12:35:50;;;;;;;1.08;1.05;;;16.20;57.10;;;;;;5084345;28;45420;-70
2022/11/20 12:38:49;;;;;;;0.80;0.80;;;16.20;57.00;;;;;;5083387;27;45430;-70
2022/11/20 12:45:09;;;;;;;0.80;0.80;;;16.30;56.90;;;;;;5067844;27;45554;-70
2022/11/20 12:47:06;;;;;;;2.03;0.98;;;16.30;56.70;;;;;;5082422;28;45696;-69
2022/11/20 12:49:34;;;;;;;2.10;0.88;;;16.30;56.90;;;;;;5084641;27;45410;-70
2022/11/20 12:52:17;;;;;;;2.65;0.98;;;16.30;57.10;;;;;;5084283;27;45495;-70
2022/11/20 12:54:54;;;;;;;0.90;0.65;;;16.10;57.30;;;;;;5082979;28;46366;-69
2022/11/20 12:57:25;;;;;;;1.35;1.23;;;16.00;57.70;;;;;;5098984;27;45448;-70
2022/11/20 13:00:04;;;;;;;0.95;0.70;;;16.00;57.90;;;;;;5104724;27;45465;-68
2022/11/20 13:02:36;;;;;;;1.25;0.82;;;15.90;58.10;;;;;;5089798;27;45538;-69
2022/11/20 13:05:10;;;;;;;1.73;0.80;;;15.80;58.30;;;;;;5092723;27;46201;-69